Time;durP1;ratioP1;P1;durP2;ratioP2;P2;SDS_P1;SDS_P2;PMS_P1;PMS_P2;Temp;Humidity;BMP_temperature;BMP_pressure;BME280_temperature;BME280_humidity;BME280_pressure;Samples;Min_cycle;Max_cycle;Signal;HPM_P1;HPM_P2
2022/02/23 00:00:36;;;;;;;;;;;7.40;91.60;;;;;;5089039;28;19916;-72
2022/02/23 00:03:01;;;;;;;;;;;7.40;91.60;;;;;;5089149;28;20402;-72
2022/02/23 00:05:27;;;;;;;;;;;7.40;91.70;;;;;;5089144;28;20018;-72
2022/02/23 00:07:53;;;;;;;;;;;7.40;91.80;;;;;;5089193;28;19964;-72
2022/02/23 00:10:18;;;;;;;;;;;7.40;91.80;;;;;;5089055;28;19924;-72
2022/02/23 00:12:44;;;;;;;;;;;7.40;91.90;;;;;;5088992;28;19912;-72
2022/02/23 00:15:09;;;;;;;;;;;7.30;92.00;;;;;;5088992;28;20503;-72
2022/02/23 00:17:36;;;;;;;;;;;7.30;92.10;;;;;;5088931;28;20274;-72
2022/02/23 00:20:02;;;;;;;;;;;7.30;92.10;;;;;;5088834;28;20105;-72
2022/02/23 00:22:30;;;;;;;;;;;7.30;92.20;;;;;;5089042;28;20350;-72
2022/02/23 00:24:55;;;;;;;;;;;7.30;92.30;;;;;;5089191;28;20409;-72
2022/02/23 00:27:21;;;;;;;;;;;7.30;92.30;;;;;;5088790;28;19912;-72
2022/02/23 00:29:47;;;;;;;;;;;7.30;92.40;;;;;;5089252;28;20347;-72
2022/02/23 00:32:13;;;;;;;;;;;7.30;92.50;;;;;;5087257;28;19967;-72
2022/02/23 00:34:38;;;;;;;;;;;7.30;92.50;;;;;;5087153;28;19960;-72
2022/02/23 00:37:04;;;;;;;;;;;7.30;92.50;;;;;;5088657;28;19919;-72
2022/02/23 00:39:30;;;;;;;;;;;7.20;92.50;;;;;;5088505;28;19934;-72
2022/02/23 00:41:55;;;;;;;;;;;7.20;92.50;;;;;;5088476;28;20316;-72
2022/02/23 00:44:21;;;;;;;;;;;7.20;92.50;;;;;;5088566;28;19912;-72
2022/02/23 00:46:46;;;;;;;;;;;7.30;92.50;;;;;;5088547;28;19916;-72
2022/02/23 00:49:12;;;;;;;;;;;7.20;92.40;;;;;;5087318;28;19957;-72
2022/02/23 00:51:37;;;;;;;;;;;7.30;92.40;;;;;;5088256;28;20015;-72
2022/02/23 00:54:03;;;;;;;;;;;7.30;92.30;;;;;;5087119;28;19912;-72
2022/02/23 00:56:28;;;;;;;;;;;7.30;92.20;;;;;;5088353;28;19915;-72
2022/02/23 00:58:54;;;;;;;;;;;7.30;92.10;;;;;;5088252;28;20359;-72
2022/02/23 01:01:20;;;;;;;;;;;7.30;92.10;;;;;;5088165;28;19916;-72
2022/02/23 01:03:45;;;;;;;;;;;7.30;92.00;;;;;;5088278;28;19908;-72
2022/02/23 01:06:11;;;;;;;;;;;7.20;91.90;;;;;;5088368;28;20358;-72
2022/02/23 01:08:36;;;;;;;;;;;7.20;92.10;;;;;;5070022;28;20020;-72
2022/02/23 01:11:02;;;;;;;;;;;7.20;91.80;;;;;;5088155;28;19912;-72
2022/02/23 01:13:28;;;;;;;;;;;7.20;91.80;;;;;;5088076;28;19942;-72
2022/02/23 01:15:53;;;;;;;;;;;7.20;91.70;;;;;;5088125;28;20233;-72
2022/02/23 01:18:19;;;;;;;;;;;7.20;91.70;;;;;;5088025;28;20373;-72
2022/02/23 01:20:44;;;;;;;;;;;7.20;91.70;;;;;;5088133;28;20054;-72
2022/02/23 01:23:10;;;;;;;;;;;7.20;91.70;;;;;;5087932;28;19920;-72
2022/02/23 01:25:36;;;;;;;;;;;7.10;91.60;;;;;;5088422;28;19912;-72
2022/02/23 01:28:04;;;;;;;;;;;7.10;91.60;;;;;;5088001;28;19912;-72
2022/02/23 01:30:30;;;;;;;;;;;7.10;91.50;;;;;;5087955;28;19916;-72
2022/02/23 01:32:55;;;;;;;;;;;7.10;91.50;;;;;;5087659;28;19920;-72
2022/02/23 01:35:21;;;;;;;;;;;7.10;91.50;;;;;;5088069;28;19947;-72
2022/02/23 01:37:47;;;;;;;;;;;7.10;91.40;;;;;;5087960;28;19912;-72
2022/02/23 01:40:13;;;;;;;;;;;7.10;91.40;;;;;;5087768;28;19916;-72
2022/02/23 01:42:39;;;;;;;;;;;7.10;91.40;;;;;;5087813;28;20415;-72
2022/02/23 01:45:04;;;;;;;;;;;7.10;91.40;;;;;;5087829;28;19995;-72
2022/02/23 01:47:30;;;;;;;;;;;7.10;91.30;;;;;;5087785;28;19920;-72
2022/02/23 01:49:56;;;;;;;;;;;7.10;91.30;;;;;;5087827;28;19912;-72
2022/02/23 01:52:25;;;;;;;;;;;7.20;91.30;;;;;;5087728;28;20280;-72
2022/02/23 01:54:52;;;;;;;;;;;7.10;91.20;;;;;;5087779;28;19959;-72
2022/02/23 01:57:17;;;;;;;;;;;7.10;91.20;;;;;;5087842;28;19973;-72
2022/02/23 01:59:43;;;;;;;;;;;7.10;91.20;;;;;;5087638;28;19912;-72
2022/02/23 02:02:09;;;;;;;;;;;7.10;91.20;;;;;;5087661;28;20282;-72
2022/02/23 02:04:34;;;;;;;;;;;7.10;91.20;;;;;;5087885;28;19916;-72
2022/02/23 02:07:00;;;;;;;;;;;7.10;91.10;;;;;;5091563;28;19912;-72
2022/02/23 02:09:25;;;;;;;;;;;7.10;91.10;;;;;;5091513;28;19955;-72
2022/02/23 02:11:51;;;;;;;;;;;7.10;91.10;;;;;;5091440;28;20527;-72
2022/02/23 02:14:17;;;;;;;;;;;7.10;91.10;;;;;;5091455;28;20397;-72
2022/02/23 02:16:42;;;;;;;;;;;7.10;91.10;;;;;;5091351;28;20011;-72
2022/02/23 02:19:08;;;;;;;;;;;7.10;91.00;;;;;;5091281;28;19912;-72
2022/02/23 02:21:54;;;;;;;;;;;7.10;91.00;;;;;;5091125;28;19916;-72
2022/02/23 02:24:20;;;;;;;;;;;7.20;91.00;;;;;;5080212;28;19908;-72
2022/02/23 02:26:45;;;;;;;;;;;7.20;91.00;;;;;;5089749;28;19916;-72
2022/02/23 02:29:11;;;;;;;;;;;7.20;91.10;;;;;;5091348;28;19919;-72
2022/02/23 02:31:36;;;;;;;;;;;7.30;91.10;;;;;;5091025;28;20027;-72
2022/02/23 02:34:02;;;;;;;;;;;7.30;91.00;;;;;;5090946;28;19924;-72
2022/02/23 02:36:28;;;;;;;;;;;7.40;90.90;;;;;;5091002;28;19916;-72
2022/02/23 02:38:53;;;;;;;;;;;7.50;91.00;;;;;;5090817;28;20030;-72
2022/02/23 02:41:19;;;;;;;;;;;7.40;90.90;;;;;;5090837;28;19908;-72
2022/02/23 02:43:44;;;;;;;;;;;7.40;90.90;;;;;;5090911;28;20449;-72
2022/02/23 02:46:10;;;;;;;;;;;7.40;90.90;;;;;;5090795;28;19912;-72
2022/02/23 02:48:35;;;;;;;;;;;7.40;90.90;;;;;;5090889;28;19912;-72
2022/02/23 02:51:01;;;;;;;;;;;7.40;90.90;;;;;;5090704;28;20408;-72
2022/02/23 02:53:26;;;;;;;;;;;7.40;91.20;;;;;;5090666;28;19939;-72
2022/02/23 02:55:52;;;;;;;;;;;7.40;91.00;;;;;;5090611;28;20326;-72
2022/02/23 02:58:18;;;;;;;;;;;7.40;90.90;;;;;;5090489;28;20277;-72
2022/02/23 03:00:43;;;;;;;;;;;7.40;90.90;;;;;;5090568;28;20255;-72
2022/02/23 03:03:09;;;;;;;;;;;7.40;90.90;;;;;;5088907;28;19916;-72
2022/02/23 03:05:34;;;;;;;;;;;7.40;90.90;;;;;;5090449;28;19977;-72
2022/02/23 03:08:00;;;;;;;;;;;7.30;90.80;;;;;;5090354;28;19912;-72
2022/02/23 03:10:26;;;;;;;;;;;7.30;90.80;;;;;;5090311;28;19919;-72
2022/02/23 03:12:51;;;;;;;;;;;7.30;90.80;;;;;;5088843;28;19919;-72
2022/02/23 03:15:17;;;;;;;;;;;7.30;90.80;;;;;;5090071;28;19922;-72
2022/02/23 03:17:42;;;;;;;;;;;7.20;90.80;;;;;;5090552;28;19919;-72
2022/02/23 03:20:08;;;;;;;;;;;7.20;90.80;;;;;;5089809;28;20325;-72
2022/02/23 03:22:34;;;;;;;;;;;7.30;90.70;;;;;;5088734;28;20341;-72
2022/02/23 03:25:00;;;;;;;;;;;7.20;90.70;;;;;;5090075;28;20141;-72
2022/02/23 03:27:25;;;;;;;;;;;7.20;90.70;;;;;;5089982;28;19919;-72
2022/02/23 03:29:51;;;;;;;;;;;7.20;90.70;;;;;;5090024;28;19996;-72
2022/02/23 03:32:16;;;;;;;;;;;7.30;90.70;;;;;;5089776;28;20539;-72
2022/02/23 03:34:42;;;;;;;;;;;7.20;90.70;;;;;;5089711;28;20011;-72
2022/02/23 03:37:07;;;;;;;;;;;7.30;90.70;;;;;;5089786;28;19916;-72
2022/02/23 03:39:33;;;;;;;;;;;7.20;90.70;;;;;;5089725;28;20007;-72
2022/02/23 03:41:59;;;;;;;;;;;7.30;90.70;;;;;;5089647;28;19969;-72
2022/02/23 03:44:24;;;;;;;;;;;7.30;90.70;;;;;;5089741;28;19965;-72
2022/02/23 03:46:50;;;;;;;;;;;7.30;90.70;;;;;;5089599;28;19912;-72
2022/02/23 03:49:15;;;;;;;;;;;7.30;90.70;;;;;;5089564;28;19908;-72
2022/02/23 03:51:41;;;;;;;;;;;7.30;90.70;;;;;;5088069;28;19923;-72
2022/02/23 03:54:07;;;;;;;;;;;7.30;90.70;;;;;;5088200;28;19908;-72
2022/02/23 03:56:38;;;;;;;;;;;7.40;90.80;;;;;;5089398;28;19947;-72
2022/02/23 03:59:08;;;;;;;;;;;7.40;90.70;;;;;;5089407;28;20420;-72
2022/02/23 04:01:34;;;;;;;;;;;7.50;90.80;;;;;;5089259;28;19939;-72
2022/02/23 04:04:00;;;;;;;;;;;7.50;90.80;;;;;;5089261;28;19929;-72
2022/02/23 04:06:26;;;;;;;;;;;7.50;90.80;;;;;;5089302;28;19923;-72
2022/02/23 04:08:52;;;;;;;;;;;7.50;90.80;;;;;;5089208;28;19961;-72
2022/02/23 04:11:18;;;;;;;;;;;7.50;90.80;;;;;;5089044;28;20011;-72
2022/02/23 04:13:44;;;;;;;;;;;7.50;90.80;;;;;;5089144;28;20385;-72
2022/02/23 04:16:10;;;;;;;;;;;7.50;90.80;;;;;;5089246;28;19916;-72
2022/02/23 04:18:35;;;;;;;;;;;7.40;90.80;;;;;;5088913;28;20024;-72
2022/02/23 04:21:01;;;;;;;;;;;7.50;90.80;;;;;;5089003;28;19916;-72
2022/02/23 04:23:27;;;;;;;;;;;7.40;90.80;;;;;;5088924;28;19916;-72
2022/02/23 04:25:52;;;;;;;;;;;7.40;90.80;;;;;;5088920;28;19951;-72
2022/02/23 04:28:18;;;;;;;;;;;7.40;90.80;;;;;;5088558;28;20267;-72
2022/02/23 04:30:44;;;;;;;;;;;7.50;90.90;;;;;;5088785;28;20314;-72
2022/02/23 04:33:10;;;;;;;;;;;7.50;90.90;;;;;;5088502;28;19931;-73
2022/02/23 04:35:35;;;;;;;;;;;7.50;91.00;;;;;;5088674;28;20508;-72
2022/02/23 04:38:01;;;;;;;;;;;7.50;91.00;;;;;;5087413;28;19912;-72
2022/02/23 04:40:27;;;;;;;;;;;7.50;91.10;;;;;;5088566;28;20366;-72
2022/02/23 04:42:52;;;;;;;;;;;7.50;91.20;;;;;;5087197;28;19913;-72
2022/02/23 04:45:18;;;;;;;;;;;7.60;91.20;;;;;;5087050;28;19980;-72
2022/02/23 04:47:44;;;;;;;;;;;7.70;91.20;;;;;;5088379;28;19999;-72
2022/02/23 04:50:09;;;;;;;;;;;7.80;91.20;;;;;;5086887;28;19920;-72
2022/02/23 04:52:35;;;;;;;;;;;7.80;91.20;;;;;;5086934;28;20219;-72
2022/02/23 04:55:00;;;;;;;;;;;7.90;91.10;;;;;;5088200;28;19908;-72
2022/02/23 04:57:26;;;;;;;;;;;7.90;91.10;;;;;;5088189;28;19920;-72
2022/02/23 04:59:51;;;;;;;;;;;7.90;91.10;;;;;;5086848;28;19926;-72
2022/02/23 05:02:17;;;;;;;;;;;7.90;91.10;;;;;;5088106;28;19908;-72
2022/02/23 05:04:43;;;;;;;;;;;7.90;91.10;;;;;;5088117;28;20286;-72
2022/02/23 05:07:09;;;;;;;;;;;8.00;91.20;;;;;;5088139;28;19938;-72
2022/02/23 05:09:34;;;;;;;;;;;7.90;91.20;;;;;;5088186;28;20007;-72
2022/02/23 05:12:00;;;;;;;;;;;8.00;91.30;;;;;;5088138;28;20011;-72
2022/02/23 05:14:25;;;;;;;;;;;8.00;91.30;;;;;;5088135;28;19916;-72
2022/02/23 05:16:51;;;;;;;;;;;7.90;91.50;;;;;;5088180;28;19938;-72
2022/02/23 05:19:17;;;;;;;;;;;7.90;91.70;;;;;;5088048;28;19942;-72
2022/02/23 05:21:42;;;;;;;;;;;7.90;92.00;;;;;;5086756;28;19920;-72
2022/02/23 05:24:08;;;;;;;;;;;7.80;92.20;;;;;;5088044;28;19919;-72
2022/02/23 05:26:33;;;;;;;;;;;7.80;92.40;;;;;;5088013;28;20035;-72
2022/02/23 05:28:59;;;;;;;;;;;7.70;92.50;;;;;;5088005;28;19923;-72
2022/02/23 05:31:24;;;;;;;;;;;7.80;92.60;;;;;;5086807;28;19916;-72
2022/02/23 05:33:50;;;;;;;;;;;7.80;92.60;;;;;;5087916;28;19936;-72
2022/02/23 05:36:15;;;;;;;;;;;7.80;92.60;;;;;;5087947;28;19947;-73
2022/02/23 05:38:41;;;;;;;;;;;7.80;92.60;;;;;;5087870;28;19908;-72
2022/02/23 05:41:06;;;;;;;;;;;7.90;92.80;;;;;;5092045;28;20011;-72
2022/02/23 05:43:32;;;;;;;;;;;7.90;92.70;;;;;;5091911;28;19912;-72
2022/02/23 05:45:58;;;;;;;;;;;7.90;92.80;;;;;;5092046;28;20036;-73
2022/02/23 05:48:23;;;;;;;;;;;7.80;92.80;;;;;;5091913;28;20366;-72
2022/02/23 05:50:49;;;;;;;;;;;7.80;92.90;;;;;;5091814;28;20320;-72
2022/02/23 05:53:14;;;;;;;;;;;7.80;93.00;;;;;;5092225;28;19913;-72
2022/02/23 05:55:40;;;;;;;;;;;7.80;93.30;;;;;;5091444;28;19912;-73
2022/02/23 05:58:06;;;;;;;;;;;7.80;93.10;;;;;;5091844;28;20174;-72
2022/02/23 06:00:31;;;;;;;;;;;7.70;93.20;;;;;;5091562;28;19916;-73
2022/02/23 06:02:57;;;;;;;;;;;7.70;93.30;;;;;;5091686;28;19913;-72
2022/02/23 06:05:22;;;;;;;;;;;7.70;93.40;;;;;;5091687;28;19916;-73
2022/02/23 06:07:48;;;;;;;;;;;7.70;93.50;;;;;;5091586;28;19920;-72
2022/02/23 06:10:13;;;;;;;;;;;7.60;93.60;;;;;;5091447;28;19951;-72
2022/02/23 06:12:39;;;;;;;;;;;7.60;93.70;;;;;;5091472;28;19912;-73
2022/02/23 06:15:05;;;;;;;;;;;7.60;93.80;;;;;;5091489;28;19908;-72
2022/02/23 06:17:30;;;;;;;;;;;7.60;93.90;;;;;;5091218;28;19920;-73
2022/02/23 06:19:56;;;;;;;;;;;7.60;93.90;;;;;;5091258;28;19916;-72
2022/02/23 06:22:22;;;;;;;;;;;7.60;94.10;;;;;;5091048;28;20049;-72
2022/02/23 06:24:47;;;;;;;;;;;7.60;94.20;;;;;;5089871;28;19966;-72
2022/02/23 06:27:13;;;;;;;;;;;7.70;94.30;;;;;;5091050;28;19912;-72
2022/02/23 06:29:39;;;;;;;;;;;7.70;94.40;;;;;;5089757;28;20166;-72
2022/02/23 06:32:06;;;;;;;;;;;7.70;94.40;;;;;;5090972;28;19912;-72
2022/02/23 06:34:32;;;;;;;;;;;7.80;94.60;;;;;;5090874;28;20378;-72
2022/02/23 06:37:02;;;;;;;;;;;7.90;94.70;;;;;;5090963;28;19912;-73
2022/02/23 06:39:31;;;;;;;;;;;8.00;94.80;;;;;;5090666;28;19963;-73
2022/02/23 06:41:57;;;;;;;;;;;8.10;94.80;;;;;;5090908;28;19914;-73
2022/02/23 06:44:23;;;;;;;;;;;8.20;94.70;;;;;;5089399;28;19912;-73
2022/02/23 06:46:48;;;;;;;;;;;8.20;94.60;;;;;;5090739;28;19918;-73
2022/02/23 06:49:15;;;;;;;;;;;8.20;94.50;;;;;;5090727;28;19916;-73
2022/02/23 06:51:40;;;;;;;;;;;8.20;94.70;;;;;;5090096;28;19908;-73
2022/02/23 06:54:06;;;;;;;;;;;8.10;94.80;;;;;;5090445;28;19912;-72
2022/02/23 06:56:32;;;;;;;;;;;8.10;95.00;;;;;;5089291;28;19935;-73
2022/02/23 06:58:57;;;;;;;;;;;8.10;95.20;;;;;;5090489;28;19932;-73
2022/02/23 07:01:23;;;;;;;;;;;8.20;95.30;;;;;;5090130;28;19912;-73
2022/02/23 07:03:48;;;;;;;;;;;8.20;95.30;;;;;;5089164;28;19912;-73
2022/02/23 07:06:14;;;;;;;;;;;8.20;95.40;;;;;;5090272;28;19918;-73
2022/02/23 07:08:44;;;;;;;;;;;8.30;95.50;;;;;;5090214;28;19915;-73
2022/02/23 07:11:10;;;;;;;;;;;8.30;95.60;;;;;;5090241;28;19918;-73
2022/02/23 07:13:35;;;;;;;;;;;8.30;95.60;;;;;;5090163;28;20307;-73
2022/02/23 07:16:01;;;;;;;;;;;8.20;95.60;;;;;;5090390;28;19908;-73
2022/02/23 07:18:28;;;;;;;;;;;8.20;95.70;;;;;;5088572;28;19966;-73
2022/02/23 07:20:54;;;;;;;;;;;8.20;95.90;;;;;;5090020;28;20396;-73
2022/02/23 07:23:19;;;;;;;;;;;8.20;96.00;;;;;;5089974;28;19916;-72
2022/02/23 07:25:45;;;;;;;;;;;8.20;96.20;;;;;;5089899;28;20420;-73
2022/02/23 07:28:10;;;;;;;;;;;8.20;96.30;;;;;;5089434;28;20018;-73
2022/02/23 07:30:38;;;;;;;;;;;8.10;96.40;;;;;;5089740;28;19908;-73
2022/02/23 07:33:03;;;;;;;;;;;8.10;96.50;;;;;;5089571;28;19916;-72
2022/02/23 07:35:29;;;;;;;;;;;8.00;96.60;;;;;;5089415;28;20316;-73
2022/02/23 07:38:03;;;;;;;;;;;8.00;96.70;;;;;;5088274;28;19920;-72
2022/02/23 07:40:29;;;;;;;;;;;8.00;96.80;;;;;;5088408;28;19912;-73
2022/02/23 07:42:54;;;;;;;;;;;8.00;97.00;;;;;;5089270;28;20381;-73
2022/02/23 07:45:20;;;;;;;;;;;8.10;97.10;;;;;;5089551;28;19932;-72
2022/02/23 07:47:46;;;;;;;;;;;8.20;97.30;;;;;;5089554;28;20575;-73
2022/02/23 07:50:15;;;;;;;;;;;8.30;97.20;;;;;;5071113;28;19912;-73
2022/02/23 07:52:42;;;;;;;;;;;8.40;97.10;;;;;;5089377;28;19934;-73
2022/02/23 07:55:08;;;;;;;;;;;8.60;97.10;;;;;;5088905;28;20270;-72
2022/02/23 07:57:34;;;;;;;;;;;8.70;97.10;;;;;;5088842;28;19918;-73
2022/02/23 07:59:59;;;;;;;;;;;8.80;96.90;;;;;;5087666;28;19915;-73
2022/02/23 08:02:29;;;;;;;;;;;8.90;96.80;;;;;;5088278;28;20332;-73
2022/02/23 08:04:55;;;;;;;;;;;9.10;96.80;;;;;;5088926;28;19913;-73
2022/02/23 08:07:21;;;;;;;;;;;9.20;96.60;;;;;;5087579;28;19920;-73
2022/02/23 08:09:47;;;;;;;;;;;9.40;96.40;;;;;;5089115;28;19937;-72
2022/02/23 08:12:13;;;;;;;;;;;9.60;96.50;;;;;;5088941;28;20320;-73
2022/02/23 08:14:39;;;;;;;;;;;9.70;95.90;;;;;;5088977;28;19922;-73
2022/02/23 08:19:49;;;;;;;;;;;9.90;95.50;;;;;;5088961;28;20289;-73
2022/02/23 08:22:15;;;;;;;;;;;9.90;95.50;;;;;;5088710;28;20003;-73
2022/02/23 08:24:45;;;;;;;;;;;10.20;95.60;;;;;;5088697;28;19995;-73
2022/02/23 08:27:15;;;;;;;;;;;10.40;95.20;;;;;;5088761;28;19955;-73
2022/02/23 08:29:41;;;;;;;;;;;10.50;94.70;;;;;;5088001;28;19909;-72
2022/02/23 08:32:08;;;;;;;;;;;10.50;94.50;;;;;;5088305;28;20453;-73
2022/02/23 08:34:34;;;;;;;;;;;10.50;94.40;;;;;;5088262;28;19924;-73
2022/02/23 08:37:00;;;;;;;;;;;10.50;94.50;;;;;;5088356;28;19921;-73
2022/02/23 08:39:25;;;;;;;;;;;10.50;94.60;;;;;;5086939;28;19916;-74
2022/02/23 08:41:51;;;;;;;;;;;10.60;94.70;;;;;;5088141;28;20027;-73
2022/02/23 08:44:17;;;;;;;;;;;10.80;94.50;;;;;;5088099;28;20389;-73
2022/02/23 08:46:43;;;;;;;;;;;10.90;94.30;;;;;;5088182;28;19912;-73
2022/02/23 08:49:10;;;;;;;;;;;10.80;94.20;;;;;;5087874;28;19908;-73
2022/02/23 08:51:36;;;;;;;;;;;10.80;94.10;;;;;;5087679;28;19938;-73
2022/02/23 08:54:02;;;;;;;;;;;10.70;94.20;;;;;;5087796;28;19912;-73
2022/02/23 08:56:28;;;;;;;;;;;10.60;94.30;;;;;;5085748;28;20316;-73
2022/02/23 08:58:53;;;;;;;;;;;10.80;95.20;;;;;;5085899;28;19924;-73
2022/02/23 09:01:19;;;;;;;;;;;11.40;95.20;;;;;;5085944;28;19912;-73
2022/02/23 09:03:44;;;;;;;;;;;12.10;95.00;;;;;;5087794;28;20350;-73
2022/02/23 09:06:10;;;;;;;;;;;12.70;93.90;;;;;;5087809;28;19920;-73
2022/02/23 09:08:36;;;;;;;;;;;13.20;92.90;;;;;;5087680;28;19969;-72
2022/02/23 09:11:01;;;;;;;;;;;13.70;92.10;;;;;;5087693;28;19916;-73
2022/02/23 09:13:27;;;;;;;;;;;14.10;91.60;;;;;;5087508;28;19908;-73
2022/02/23 09:15:53;;;;;;;;;;;14.40;91.00;;;;;;5087644;28;20354;-73
2022/02/23 09:18:18;;;;;;;;;;;14.80;90.20;;;;;;5087723;28;19916;-74
2022/02/23 09:20:44;;;;;;;;;;;15.20;89.20;;;;;;5087642;28;20383;-73
2022/02/23 09:23:09;;;;;;;;;;;15.50;88.00;;;;;;5087552;28;19912;-73
2022/02/23 09:25:35;;;;;;;;;;;15.60;85.80;;;;;;5087628;28;19912;-73
2022/02/23 09:28:00;;;;;;;;;;;15.40;85.10;;;;;;5087426;28;19951;-73
2022/02/23 09:30:27;;;;;;;;;;;15.30;86.30;;;;;;5087230;28;20031;-73
2022/02/23 09:32:53;;;;;;;;;;;15.40;85.20;;;;;;5086819;28;19913;-74
2022/02/23 09:35:19;;;;;;;;;;;15.50;85.90;;;;;;5087275;28;19937;-74
2022/02/23 09:37:45;;;;;;;;;;;16.00;84.90;;;;;;5087325;28;20350;-74
2022/02/23 09:40:12;;;;;;;;;;;16.40;83.40;;;;;;5087453;28;20003;-74
2022/02/23 09:42:37;;;;;;;;;;;16.70;80.80;;;;;;5087153;28;19912;-73
2022/02/23 09:45:04;;;;;;;;;;;16.90;80.50;;;;;;5087508;28;19930;-73
2022/02/23 09:47:32;;;;;;;;;;;17.10;79.00;;;;;;5087244;28;19921;-74
2022/02/23 09:49:59;;;;;;;;;;;17.40;78.90;;;;;;5087272;28;19912;-73
2022/02/23 09:52:25;;;;;;;;;;;17.80;77.50;;;;;;5086931;28;19908;-73
2022/02/23 09:54:51;;;;;;;;;;;18.20;76.70;;;;;;5087047;28;19916;-72
2022/02/23 09:57:18;;;;;;;;;;;18.50;74.80;;;;;;5085952;28;19908;-73
2022/02/23 09:59:43;;;;;;;;;;;18.40;72.90;;;;;;5086929;28;19923;-72
2022/02/23 10:02:12;;;;;;;;;;;18.40;72.00;;;;;;5086503;28;19912;-72
2022/02/23 10:04:40;;;;;;;;;;;18.00;70.80;;;;;;5087267;28;19916;-72
2022/02/23 10:07:06;;;;;;;;;;;17.20;70.70;;;;;;5087800;28;19943;-72
2022/02/23 10:09:54;;;;;;;;;;;16.40;71.40;;;;;;5088461;28;19912;-72
2022/02/23 10:12:20;;;;;;;;;;;15.80;71.90;;;;;;5087985;28;20018;-72
2022/02/23 10:14:46;;;;;;;;;;;15.10;73.10;;;;;;5086790;28;19916;-72
2022/02/23 10:17:12;;;;;;;;;;;14.80;74.40;;;;;;5087431;28;19912;-72
2022/02/23 10:19:49;;;;;;;;;;;15.10;76.40;;;;;;5087904;28;19920;-73
2022/02/23 10:22:20;;;;;;;;;;;15.50;75.90;;;;;;5087549;28;19912;-73
2022/02/23 10:24:49;;;;;;;;;;;15.90;75.00;;;;;;5088096;28;19912;-73
2022/02/23 10:27:18;;;;;;;;;;;16.50;74.20;;;;;;5089854;28;19921;-73
2022/02/23 10:29:47;;;;;;;;;;;16.80;73.40;;;;;;5091621;28;19908;-73
2022/02/23 10:32:14;;;;;;;;;;;17.10;72.60;;;;;;5089419;28;20362;-72
2022/02/23 10:34:49;;;;;;;;;;;17.50;72.30;;;;;;5088620;28;19957;-72
2022/02/23 10:37:25;;;;;;;;;;;18.00;72.30;;;;;;5087640;28;19935;-72
2022/02/23 10:39:53;;;;;;;;;;;18.70;71.90;;;;;;5088302;28;19923;-70
2022/02/23 10:42:20;;;;;;;;;;;19.40;70.50;;;;;;5090742;28;19948;-72
2022/02/23 10:44:47;;;;;;;;;;;19.40;67.90;;;;;;5089533;28;20002;-72
2022/02/23 10:47:21;;;;;;;;;;;18.90;67.60;;;;;;5091282;28;20614;-72
2022/02/23 10:50:05;;;;;;;;;;;18.70;67.80;;;;;;5091287;28;19908;-72
2022/02/23 10:52:35;;;;;;;;;;;18.80;66.60;;;;;;5090999;28;19952;-73
2022/02/23 10:55:19;;;;;;;;;;;19.00;66.70;;;;;;5089515;28;20357;-71
2022/02/23 10:57:54;;;;;;;;;;;19.20;67.10;;;;;;5091047;28;19908;-70
2022/02/23 11:00:21;;;;;;;;;;;19.80;66.10;;;;;;5090456;28;20015;-73
2022/02/23 11:02:48;;;;;;;;;;;19.40;63.40;;;;;;5090103;28;19951;-72
2022/02/23 11:05:14;;;;;;;;;;;18.70;63.90;;;;;;5088855;28;20613;-72
2022/02/23 11:07:44;;;;;;;;;;;18.60;65.30;;;;;;5089977;28;19943;-73
2022/02/23 11:10:13;;;;;;;;;;;18.70;64.50;;;;;;5090228;28;20312;-73
2022/02/23 11:12:44;;;;;;;;;;;18.70;64.60;;;;;;5090128;28;20402;-73
2022/02/23 11:15:11;;;;;;;;;;;18.80;64.80;;;;;;5088458;28;20391;-73
2022/02/23 11:17:37;;;;;;;;;;;19.10;64.30;;;;;;5090334;28;20384;-73
2022/02/23 11:20:03;;;;;;;;;;;19.20;63.80;;;;;;5088657;28;20358;-73
2022/02/23 11:22:30;;;;;;;;;;;19.30;63.80;;;;;;5090170;28;19908;-73
2022/02/23 11:24:57;;;;;;;;;;;19.40;63.70;;;;;;5089504;28;19961;-73
2022/02/23 11:27:23;;;;;;;;;;;19.40;63.40;;;;;;5089668;28;20026;-73
2022/02/23 11:29:59;;;;;;;;;;;19.10;63.20;;;;;;5089775;28;19923;-73
2022/02/23 11:32:51;;;;;;;;;;;18.60;62.40;;;;;;5088084;28;20342;-72
2022/02/23 11:35:49;;;;;;;;;;;17.80;62.70;;;;;;5085194;28;20363;-73
2022/02/23 11:38:20;;;;;;;;;;;17.10;63.70;;;;;;5079325;28;19908;-72
2022/02/23 11:40:50;;;;;;;;;;;16.40;64.90;;;;;;5089714;28;19925;-72
2022/02/23 11:43:29;;;;;;;;;;;16.00;65.40;;;;;;5089205;28;19912;-72
2022/02/23 11:45:56;;;;;;;;;;;15.70;66.30;;;;;;5089809;28;19919;-72
2022/02/23 11:48:21;;;;;;;;;;;15.50;67.20;;;;;;5088951;28;19941;-72
2022/02/23 11:51:00;;;;;;;;;;;15.50;67.60;;;;;;5089246;28;19908;-72
2022/02/23 11:53:39;;;;;;;;;;;15.40;67.80;;;;;;5082556;28;20377;-71
2022/02/23 11:56:23;;;;;;;;;;;15.30;68.20;;;;;;5084924;28;19908;-72
2022/02/23 11:58:53;;;;;;;;;;;15.30;69.00;;;;;;5087078;28;19991;-72
2022/02/23 12:01:20;;;;;;;;;;;15.80;70.20;;;;;;5089022;28;19908;-72
2022/02/23 12:04:04;;;;;;;;;;;16.60;69.70;;;;;;5088307;28;19919;-72
2022/02/23 12:06:50;;;;;;;;;;;17.00;67.80;;;;;;5088359;28;20324;-73
2022/02/23 12:09:35;;;;;;;;;;;16.90;67.00;;;;;;5088977;28;19919;-73
2022/02/23 12:12:01;;;;;;;;;;;16.60;66.80;;;;;;5088864;28;19947;-72
2022/02/23 12:14:46;;;;;;;;;;;16.10;67.30;;;;;;5088700;28;20306;-73
2022/02/23 12:17:30;;;;;;;;;;;15.90;68.00;;;;;;5085531;28;19995;-73
2022/02/23 12:19:56;;;;;;;;;;;15.90;68.80;;;;;;5087665;28;19919;-72
2022/02/23 12:22:22;;;;;;;;;;;16.10;69.70;;;;;;5088128;28;19916;-72
2022/02/23 12:24:47;;;;;;;;;;;16.60;68.60;;;;;;5088124;28;19958;-73
2022/02/23 12:27:19;;;;;;;;;;;16.90;67.50;;;;;;5088176;28;19912;-73
2022/02/23 12:29:45;;;;;;;;;;;17.10;67.80;;;;;;5083550;28;19915;-73
2022/02/23 12:32:11;;;;;;;;;;;17.40;66.90;;;;;;5087829;28;19912;-73
2022/02/23 12:34:38;;;;;;;;;;;17.50;65.70;;;;;;5087949;28;19925;-73
2022/02/23 12:37:04;;;;;;;;;;;17.20;65.30;;;;;;5088057;28;19928;-73
2022/02/23 12:39:30;;;;;;;;;;;16.80;65.20;;;;;;5087962;28;19915;-72
2022/02/23 12:42:02;;;;;;;;;;;16.60;66.30;;;;;;5088410;28;19908;-72
2022/02/23 12:44:31;;;;;;;;;;;16.40;66.40;;;;;;5088213;28;20273;-71
2022/02/23 12:46:58;;;;;;;;;;;16.30;66.80;;;;;;5088103;28;20468;-71
2022/02/23 12:49:24;;;;;;;;;;;16.40;67.60;;;;;;5088346;28;20538;-71
2022/02/23 12:51:50;;;;;;;;;;;16.50;67.60;;;;;;5088415;28;19912;-71
2022/02/23 12:54:22;;;;;;;;;;;16.50;67.30;;;;;;5088587;28;20236;-74
2022/02/23 12:56:49;;;;;;;;;;;16.60;67.90;;;;;;5088827;28;19908;-72
2022/02/23 12:59:18;;;;;;;;;;;16.90;68.00;;;;;;5088120;28;19919;-71
2022/02/23 13:01:45;;;;;;;;;;;16.70;67.50;;;;;;5087902;28;19908;-71
2022/02/23 13:04:12;;;;;;;;;;;16.50;67.70;;;;;;5086601;28;19916;-74
2022/02/23 13:06:38;;;;;;;;;;;16.30;68.30;;;;;;5088407;28;19957;-74
2022/02/23 13:09:05;;;;;;;;;;;16.40;68.80;;;;;;5088652;28;19908;-74
2022/02/23 13:11:39;;;;;;;;;;;16.40;68.50;;;;;;5088282;28;20015;-73
2022/02/23 13:14:15;;;;;;;;;;;16.20;68.00;;;;;;5088267;28;20004;-73
2022/02/23 13:16:43;;;;;;;;;;;16.10;68.50;;;;;;5088222;28;19950;-72
2022/02/23 13:19:13;;;;;;;;;;;15.90;68.70;;;;;;5087349;28;19920;-72
2022/02/23 13:21:44;;;;;;;;;;;15.60;69.30;;;;;;5075704;28;20270;-71
2022/02/23 13:24:11;;;;;;;;;;;15.40;70.10;;;;;;5087686;28;19912;-71
2022/02/23 13:26:38;;;;;;;;;;;15.00;71.40;;;;;;5087993;28;19914;-72
2022/02/23 13:29:06;;;;;;;;;;;14.60;72.70;;;;;;5088257;28;20354;-72
2022/02/23 13:31:34;;;;;;;;;;;14.10;74.40;;;;;;5087674;28;19952;-74
2022/02/23 13:34:16;;;;;;;;;;;13.90;75.50;;;;;;5084448;28;19973;-72
2022/02/23 13:36:42;;;;;;;;;;;13.70;76.10;;;;;;5083858;28;20007;-72
2022/02/23 13:39:20;;;;;;;;;;;13.60;77.10;;;;;;5069876;28;19916;-71
2022/02/23 13:41:54;;;;;;;;;;;13.70;77.50;;;;;;5085889;28;20259;-72
2022/02/23 13:44:28;;;;;;;;;;;13.80;77.90;;;;;;5087949;28;19912;-71
2022/02/23 13:46:59;;;;;;;;;;;13.90;77.80;;;;;;5087982;28;19915;-71
2022/02/23 13:49:25;;;;;;;;;;;14.10;78.60;;;;;;5084920;28;19912;-72
2022/02/23 13:51:51;;;;;;;;;;;14.30;78.30;;;;;;5087350;28;19924;-72
2022/02/23 13:54:17;;;;;;;;;;;14.30;77.40;;;;;;5086239;28;19962;-73
2022/02/23 13:57:06;;;;;;;;;;;14.30;78.10;;;;;;5087567;28;19916;-72
2022/02/23 13:59:38;;;;;;;;;;;14.60;78.70;;;;;;5084102;28;19912;-72
2022/02/23 14:02:09;;;;;;;;;;;15.00;78.70;;;;;;5088515;28;19915;-73
2022/02/23 14:04:38;;;;;;;;;;;15.40;77.60;;;;;;5092424;28;19920;-74
2022/02/23 14:07:07;;;;;;;;;;;15.50;75.20;;;;;;5091364;28;20382;-72
2022/02/23 14:09:37;;;;;;;;;;;15.40;73.70;;;;;;5089253;28;19908;-73
2022/02/23 14:12:03;;;;;;;;;;;15.30;73.10;;;;;;5087424;28;20007;-73
2022/02/23 14:14:41;;;;;;;;;;;15.20;72.80;;;;;;5091454;28;19943;-74
2022/02/23 14:17:24;;;;;;;;;;;15.10;72.60;;;;;;5090104;28;19952;-73
2022/02/23 14:19:52;;;;;;;;;;;14.90;72.80;;;;;;5090591;28;19920;-74
2022/02/23 14:22:28;;;;;;;;;;;14.90;73.20;;;;;;5089785;28;20299;-73
2022/02/23 14:24:56;;;;;;;;;;;14.80;73.40;;;;;;5089933;28;20450;-71
2022/02/23 14:27:26;;;;;;;;;;;14.80;74.40;;;;;;5089486;28;19912;-72